Time;durP1;ratioP1;P1;durP2;ratioP2;P2;SDS_P1;SDS_P2;PMS_P1;PMS_P2;Temp;Humidity;BMP_temperature;BMP_pressure;BME280_temperature;BME280_humidity;BME280_pressure;Samples;Min_cycle;Max_cycle;Signal;HPM_P1;HPM_P2
2023/02/25 00:02:00;;;;;;;;;;;5.10;99.90;;;;;;4983267;28;19968;-67
2023/02/25 00:04:26;;;;;;;;;;;5.00;99.90;;;;;;4991977;28;19918;-67
2023/02/25 00:06:51;;;;;;;;;;;5.00;99.90;;;;;;4987131;28;20404;-65
2023/02/25 00:09:17;;;;;;;;;;;5.00;99.90;;;;;;4986661;28;19953;-66
2023/02/25 00:11:42;;;;;;;;;;;5.00;99.90;;;;;;4987024;28;19914;-66
2023/02/25 00:14:08;;;;;;;;;;;5.00;99.90;;;;;;4985057;28;19914;-66
2023/02/25 00:16:33;;;;;;;;;;;4.90;99.90;;;;;;4970415;28;19966;-65
2023/02/25 00:18:59;;;;;;;;;;;4.90;99.90;;;;;;4989361;28;19984;-66
2023/02/25 00:21:24;;;;;;;;;;;4.90;99.90;;;;;;4989280;28;19920;-66
2023/02/25 00:23:52;;;;;;;;;;;4.90;99.90;;;;;;4988131;28;19910;-66
2023/02/25 00:26:18;;;;;;;;;;;4.90;99.90;;;;;;4985614;28;20016;-67
2023/02/25 00:28:44;;;;;;;;;;;4.90;99.90;;;;;;4989886;28;20408;-66
2023/02/25 00:31:10;;;;;;;;;;;4.90;99.90;;;;;;4984672;28;20005;-66
2023/02/25 00:33:40;;;;;;;;;;;4.90;99.90;;;;;;4988267;28;19909;-64
2023/02/25 00:36:11;;;;;;;;;;;4.90;99.90;;;;;;4986485;28;19910;-66
2023/02/25 00:38:37;;;;;;;;;;;4.90;99.90;;;;;;4985727;28;20005;-65
2023/02/25 00:41:12;;;;;;;;;;;4.90;99.90;;;;;;4990461;28;20004;-66
2023/02/25 00:43:39;;;;;;;;;;;4.90;99.90;;;;;;4985846;28;19921;-65
2023/02/25 00:46:04;;;;;;;;;;;4.90;99.90;;;;;;4988077;28;20465;-66
2023/02/25 00:48:30;;;;;;;;;;;4.90;99.90;;;;;;4987914;28;20228;-65
2023/02/25 00:50:55;;;;;;;;;;;4.90;99.90;;;;;;4985644;28;19928;-66
2023/02/25 00:53:21;;;;;;;;;;;4.80;99.90;;;;;;4986442;28;19909;-67
2023/02/25 00:55:46;;;;;;;;;;;4.80;99.90;;;;;;4970574;28;20253;-66
2023/02/25 00:58:12;;;;;;;;;;;4.80;99.90;;;;;;4987767;28;19996;-67
2023/02/25 01:00:37;;;;;;;;;;;4.80;99.90;;;;;;4985569;28;19913;-67
2023/02/25 01:03:02;;;;;;;;;;;4.80;99.90;;;;;;4986994;28;19910;-68
2023/02/25 01:05:28;;;;;;;;;;;4.80;99.90;;;;;;4985688;28;19918;-66
2023/02/25 01:07:54;;;;;;;;;;;4.70;99.90;;;;;;4986898;28;19910;-66
2023/02/25 01:10:19;;;;;;;;;;;4.70;99.90;;;;;;4985012;28;19969;-67
2023/02/25 01:12:44;;;;;;;;;;;4.70;99.90;;;;;;4988463;28;19925;-67
2023/02/25 01:15:10;;;;;;;;;;;4.70;99.90;;;;;;4986331;28;19929;-67
2023/02/25 01:17:36;;;;;;;;;;;4.70;99.90;;;;;;4989282;28;20348;-65
2023/02/25 01:20:05;;;;;;;;;;;4.70;99.90;;;;;;4983652;28;20388;-67
2023/02/25 01:22:30;;;;;;;;;;;4.60;99.90;;;;;;4966234;28;19918;-67
2023/02/25 01:24:56;;;;;;;;;;;4.60;99.90;;;;;;4982992;28;19995;-67
2023/02/25 01:27:21;;;;;;;;;;;4.60;99.90;;;;;;4984537;28;19910;-67
2023/02/25 01:29:47;;;;;;;;;;;4.60;99.90;;;;;;4987600;28;20041;-67
2023/02/25 01:32:13;;;;;;;;;;;4.60;99.90;;;;;;4986187;28;19917;-68
2023/02/25 01:34:39;;;;;;;;;;;4.50;99.90;;;;;;4984407;28;20291;-67
2023/02/25 01:37:05;;;;;;;;;;;4.50;99.90;;;;;;4983924;28;20005;-66
2023/02/25 01:39:31;;;;;;;;;;;4.60;99.90;;;;;;4968028;28;20000;-66
2023/02/25 01:41:57;;;;;;;;;;;4.50;99.90;;;;;;4965798;28;19910;-67
2023/02/25 01:44:30;;;;;;;;;;;4.50;99.90;;;;;;4986520;28;20367;-67
2023/02/25 01:46:56;;;;;;;;;;;4.50;99.90;;;;;;4983034;28;19930;-67
2023/02/25 01:49:28;;;;;;;;;;;4.50;99.90;;;;;;4990731;28;19914;-66
2023/02/25 01:51:57;;;;;;;;;;;4.50;99.90;;;;;;4988919;28;19910;-67
2023/02/25 01:54:22;;;;;;;;;;;4.50;99.90;;;;;;4988238;28;19944;-67
2023/02/25 01:56:50;;;;;;;;;;;4.50;99.90;;;;;;4970564;28;20414;-67
2023/02/25 01:59:17;;;;;;;;;;;4.50;99.90;;;;;;4991889;28;19917;-67
2023/02/25 02:01:43;;;;;;;;;;;4.50;99.90;;;;;;4988242;28;20287;-67
2023/02/25 02:04:10;;;;;;;;;;;4.50;99.90;;;;;;4990063;28;20017;-66
2023/02/25 02:06:40;;;;;;;;;;;4.50;99.90;;;;;;4983910;28;20761;-67
2023/02/25 02:09:07;;;;;;;;;;;4.50;99.90;;;;;;4987795;28;19932;-66
2023/02/25 02:11:33;;;;;;;;;;;4.50;99.90;;;;;;4989707;28;19949;-66
2023/02/25 02:14:00;;;;;;;;;;;4.50;99.90;;;;;;4993685;23;19953;-64
2023/02/25 02:16:25;;;;;;;;;;;4.50;99.90;;;;;;4985571;28;19924;-66
2023/02/25 02:18:54;;;;;;;;;;;4.50;99.90;;;;;;4988200;28;19910;-64
2023/02/25 02:21:20;;;;;;;;;;;4.50;99.90;;;;;;4987832;28;20356;-64
2023/02/25 02:23:55;;;;;;;;;;;4.50;99.90;;;;;;4989177;28;19968;-61
2023/02/25 02:26:40;;;;;;;;;;;4.50;99.90;;;;;;4984536;28;19910;-65
2023/02/25 02:29:44;;;;;;;;;;;4.50;99.90;;;;;;4990178;28;19921;-64
2023/02/25 02:32:35;;;;;;;;;;;4.50;99.90;;;;;;4905589;29;20475;-65
2023/02/25 02:35:08;;;;;;;;;;;4.50;99.90;;;;;;4903801;29;20476;-64
2023/02/25 02:37:36;;;;;;;;;;;4.50;99.90;;;;;;4961834;28;19943;-66
2023/02/25 02:40:04;;;;;;;;;;;4.50;99.90;;;;;;4982819;28;19918;-64
2023/02/25 02:42:41;;;;;;;;;;;4.50;99.90;;;;;;4989165;28;19909;-65
2023/02/25 02:45:42;;;;;;;;;;;4.50;99.90;;;;;;4981286;28;19922;-65
2023/02/25 02:48:11;;;;;;;;;;;4.50;99.90;;;;;;4891194;29;19934;-65
2023/02/25 02:50:39;;;;;;;;;;;4.50;99.90;;;;;;4967448;28;19918;-64
2023/02/25 02:53:07;;;;;;;;;;;4.50;99.90;;;;;;4988802;28;20422;-60
2023/02/25 02:55:40;;;;;;;;;;;4.50;99.90;;;;;;4969589;28;19918;-64
2023/02/25 02:58:09;;;;;;;;;;;4.50;99.90;;;;;;4992219;28;19910;-64
2023/02/25 03:00:47;;;;;;;;;;;4.50;99.90;;;;;;4991565;28;19910;-64
2023/02/25 03:03:18;;;;;;;;;;;4.50;99.90;;;;;;4983790;28;19953;-63
2023/02/25 03:05:46;;;;;;;;;;;4.50;99.90;;;;;;4990166;28;19910;-64
2023/02/25 03:08:24;;;;;;;;;;;4.50;99.90;;;;;;4983544;28;20002;-65
2023/02/25 03:10:50;;;;;;;;;;;4.50;99.90;;;;;;4978256;28;20009;-65
2023/02/25 03:13:15;;;;;;;;;;;4.50;99.90;;;;;;4982507;28;20000;-64
2023/02/25 03:15:41;;;;;;;;;;;4.50;99.90;;;;;;4983963;28;19941;-61
2023/02/25 03:18:30;;;;;;;;;;;4.50;99.90;;;;;;4981763;28;20390;-64
2023/02/25 03:20:56;;;;;;;;;;;4.50;99.90;;;;;;4987586;28;20343;-64
2023/02/25 03:23:26;;;;;;;;;;;4.50;99.90;;;;;;4988162;28;19945;-64
2023/02/25 03:25:55;;;;;;;;;;;4.50;99.90;;;;;;4987351;28;19909;-64
2023/02/25 03:28:20;;;;;;;;;;;4.50;99.90;;;;;;4979136;28;19910;-64
2023/02/25 03:30:49;;;;;;;;;;;4.50;99.90;;;;;;4988127;28;19965;-65
2023/02/25 03:33:20;;;;;;;;;;;4.60;99.90;;;;;;4990640;28;19971;-65
2023/02/25 03:35:46;;;;;;;;;;;4.50;99.90;;;;;;4979900;28;19957;-64
2023/02/25 03:38:14;;;;;;;;;;;4.50;99.90;;;;;;4988428;28;20399;-65
2023/02/25 03:40:41;;;;;;;;;;;4.50;99.90;;;;;;4986611;28;20283;-63
2023/02/25 03:43:10;;;;;;;;;;;4.50;99.90;;;;;;4988692;28;20360;-65
2023/02/25 03:45:37;;;;;;;;;;;4.50;99.90;;;;;;4984063;28;20044;-65
2023/02/25 03:48:04;;;;;;;;;;;4.50;99.90;;;;;;4983402;28;19914;-64
2023/02/25 03:50:33;;;;;;;;;;;4.50;99.90;;;;;;4977872;28;20006;-64
2023/02/25 03:52:59;;;;;;;;;;;4.50;99.90;;;;;;4976903;28;20400;-64
2023/02/25 03:55:24;;;;;;;;;;;4.50;99.90;;;;;;4985570;28;19918;-64
2023/02/25 03:57:50;;;;;;;;;;;4.50;99.90;;;;;;4984989;28;19966;-64
2023/02/25 04:00:23;;;;;;;;;;;4.50;99.90;;;;;;4983444;28;19983;-64
2023/02/25 04:02:49;;;;;;;;;;;4.40;99.90;;;;;;4982290;28;20004;-64
2023/02/25 04:05:16;;;;;;;;;;;4.50;99.90;;;;;;4969415;28;20008;-64
2023/02/25 04:07:42;;;;;;;;;;;4.40;99.90;;;;;;4989261;28;19964;-65
2023/02/25 04:10:08;;;;;;;;;;;4.50;99.90;;;;;;4986737;28;19945;-64
2023/02/25 04:12:33;;;;;;;;;;;4.50;99.90;;;;;;4983367;28;19914;-64
2023/02/25 04:14:59;;;;;;;;;;;4.50;99.90;;;;;;4977081;28;20394;-64
2023/02/25 04:17:24;;;;;;;;;;;4.50;99.90;;;;;;4984773;28;19913;-65
2023/02/25 04:19:50;;;;;;;;;;;4.50;99.90;;;;;;4981809;28;19971;-64
2023/02/25 04:22:15;;;;;;;;;;;4.50;99.90;;;;;;4988752;28;19917;-65
2023/02/25 04:24:41;;;;;;;;;;;4.50;99.90;;;;;;4987908;28;19928;-65
2023/02/25 04:27:06;;;;;;;;;;;4.50;99.90;;;;;;4989390;28;19922;-64
2023/02/25 04:29:31;;;;;;;;;;;4.50;99.90;;;;;;4985341;28;19929;-64
2023/02/25 04:31:57;;;;;;;;;;;4.50;99.90;;;;;;4987817;28;19960;-65
2023/02/25 04:34:23;;;;;;;;;;;4.50;99.90;;;;;;4987911;28;20264;-64
2023/02/25 04:36:48;;;;;;;;;;;4.50;99.90;;;;;;4986131;28;20435;-66
2023/02/25 04:39:14;;;;;;;;;;;4.50;99.90;;;;;;4986209;28;19996;-65
2023/02/25 04:41:40;;;;;;;;;;;4.60;99.90;;;;;;4987194;28;20009;-64
2023/02/25 04:44:06;;;;;;;;;;;4.50;99.90;;;;;;4982726;28;20001;-65
2023/02/25 04:46:33;;;;;;;;;;;4.50;99.90;;;;;;4984722;28;19910;-64
2023/02/25 04:48:58;;;;;;;;;;;4.50;99.90;;;;;;4986362;28;20000;-64
2023/02/25 04:51:24;;;;;;;;;;;4.50;99.90;;;;;;4984722;28;19997;-65
2023/02/25 04:53:49;;;;;;;;;;;4.50;99.90;;;;;;4988364;28;19910;-64
2023/02/25 04:56:15;;;;;;;;;;;4.50;99.90;;;;;;4988450;28;20267;-64
2023/02/25 04:58:41;;;;;;;;;;;4.50;99.90;;;;;;4987695;28;20020;-65
2023/02/25 05:01:07;;;;;;;;;;;4.50;99.90;;;;;;4981887;28;19968;-63
2023/02/25 05:03:33;;;;;;;;;;;4.40;99.90;;;;;;4982242;28;19964;-65
2023/02/25 05:05:58;;;;;;;;;;;4.40;99.90;;;;;;4978033;28;19933;-60
2023/02/25 05:08:24;;;;;;;;;;;4.40;99.90;;;;;;4980862;28;20248;-62
2023/02/25 05:10:50;;;;;;;;;;;4.40;99.90;;;;;;4987641;28;20421;-64
2023/02/25 05:13:16;;;;;;;;;;;4.40;99.90;;;;;;4984690;28;19921;-65
2023/02/25 05:15:41;;;;;;;;;;;4.40;99.90;;;;;;4997512;28;19920;-64
2023/02/25 05:18:07;;;;;;;;;;;4.40;99.90;;;;;;5006414;28;19913;-65
2023/02/25 05:20:32;;;;;;;;;;;4.40;99.90;;;;;;5004892;28;19922;-64
2023/02/25 05:22:58;;;;;;;;;;;4.40;99.90;;;;;;5007038;28;20377;-64
2023/02/25 05:25:23;;;;;;;;;;;4.40;99.90;;;;;;5004603;28;19914;-66
2023/02/25 05:27:49;;;;;;;;;;;4.40;99.90;;;;;;5006216;28;19914;-65
2023/02/25 05:30:14;;;;;;;;;;;4.40;99.90;;;;;;5006309;28;19925;-65
2023/02/25 05:32:40;;;;;;;;;;;4.40;99.90;;;;;;5002681;28;19992;-64
2023/02/25 05:35:07;;;;;;;;;;;4.40;99.90;;;;;;5006175;28;20267;-66
2023/02/25 05:37:33;;;;;;;;;;;4.40;99.90;;;;;;5001937;28;19913;-66
2023/02/25 05:40:00;;;;;;;;;;;4.40;99.90;;;;;;5006202;28;19910;-66
2023/02/25 05:42:25;;;;;;;;;;;4.40;99.90;;;;;;5005239;28;19909;-65
2023/02/25 05:44:51;;;;;;;;;;;4.40;99.90;;;;;;5004929;28;20430;-66
2023/02/25 05:47:16;;;;;;;;;;;4.40;99.90;;;;;;5000663;28;20509;-65
2023/02/25 05:49:42;;;;;;;;;;;4.50;99.90;;;;;;5005218;28;20363;-65
2023/02/25 05:52:08;;;;;;;;;;;4.40;99.90;;;;;;5001427;28;19943;-64
2023/02/25 05:54:33;;;;;;;;;;;4.50;99.90;;;;;;5006268;28;19920;-65
2023/02/25 05:56:59;;;;;;;;;;;4.40;99.90;;;;;;5005690;28;19945;-65
2023/02/25 05:59:24;;;;;;;;;;;4.40;99.90;;;;;;5005518;28;19921;-66
2023/02/25 06:01:50;;;;;;;;;;;4.40;99.90;;;;;;5003200;28;19922;-66
2023/02/25 06:04:15;;;;;;;;;;;4.40;99.90;;;;;;5003270;28;19971;-63
2023/02/25 06:06:40;;;;;;;;;;;4.50;99.90;;;;;;5003110;28;20279;-61
2023/02/25 06:09:08;;;;;;;;;;;4.50;99.90;;;;;;5007013;28;19976;-65
2023/02/25 06:11:33;;;;;;;;;;;4.50;99.90;;;;;;5001497;28;19909;-65
2023/02/25 06:13:59;;;;;;;;;;;4.40;99.90;;;;;;5004160;28;19931;-63
2023/02/25 06:16:30;;;;;;;;;;;4.50;99.90;;;;;;5006888;28;20260;-65
2023/02/25 06:18:57;;;;;;;;;;;4.40;99.90;;;;;;5006009;28;19910;-65
2023/02/25 06:21:22;;;;;;;;;;;4.50;99.90;;;;;;5006553;28;20263;-64
2023/02/25 06:23:51;;;;;;;;;;;4.50;99.90;;;;;;5006145;28;19909;-65
2023/02/25 06:26:16;;;;;;;;;;;4.50;99.90;;;;;;5005002;28;20000;-64
2023/02/25 06:28:42;;;;;;;;;;;4.50;99.90;;;;;;5006625;28;20000;-63
2023/02/25 06:31:08;;;;;;;;;;;4.50;99.90;;;;;;5004218;28;19921;-64
2023/02/25 06:33:34;;;;;;;;;;;4.50;99.90;;;;;;5003874;28;19921;-63
2023/02/25 06:35:59;;;;;;;;;;;4.50;99.90;;;;;;5007024;28;19916;-65
2023/02/25 06:38:25;;;;;;;;;;;4.50;99.90;;;;;;5011271;28;19920;-64
2023/02/25 06:40:51;;;;;;;;;;;4.50;99.90;;;;;;5004793;28;19913;-65
2023/02/25 06:43:16;;;;;;;;;;;4.50;99.90;;;;;;5008920;28;20286;-65
2023/02/25 06:45:42;;;;;;;;;;;4.50;99.90;;;;;;5010431;28;20228;-64
2023/02/25 06:48:07;;;;;;;;;;;4.50;99.90;;;;;;5006533;28;20012;-66
2023/02/25 06:50:33;;;;;;;;;;;4.50;99.90;;;;;;5007995;28;20367;-65
2023/02/25 06:52:58;;;;;;;;;;;4.50;99.90;;;;;;5011090;28;19916;-65
2023/02/25 06:55:24;;;;;;;;;;;4.60;99.90;;;;;;5009698;28;19916;-65
2023/02/25 06:57:49;;;;;;;;;;;4.60;99.90;;;;;;5009088;28;20428;-64
2023/02/25 07:00:15;;;;;;;;;;;4.60;99.90;;;;;;5002490;28;19918;-65
2023/02/25 07:02:40;;;;;;;;;;;4.60;99.90;;;;;;5005515;28;19909;-64
2023/02/25 07:05:06;;;;;;;;;;;4.60;99.90;;;;;;5008067;28;19909;-65
2023/02/25 07:07:31;;;;;;;;;;;4.60;99.90;;;;;;5011342;28;19918;-65
2023/02/25 07:09:57;;;;;;;;;;;4.70;99.90;;;;;;5011120;28;20013;-65
2023/02/25 07:12:22;;;;;;;;;;;4.70;99.90;;;;;;5004663;28;19975;-65
2023/02/25 07:14:48;;;;;;;;;;;4.70;99.90;;;;;;5008377;28;20338;-63
2023/02/25 07:17:14;;;;;;;;;;;4.70;99.90;;;;;;5010428;28;20412;-65
2023/02/25 07:19:39;;;;;;;;;;;4.70;99.90;;;;;;5010420;28;19917;-65
2023/02/25 07:22:05;;;;;;;;;;;4.70;99.90;;;;;;5009476;28;20363;-65
2023/02/25 07:24:30;;;;;;;;;;;4.70;99.90;;;;;;5011335;28;19910;-66
2023/02/25 07:26:56;;;;;;;;;;;4.70;99.90;;;;;;5010388;28;19952;-64
2023/02/25 07:29:21;;;;;;;;;;;4.70;99.90;;;;;;5008353;28;19925;-64
2023/02/25 07:31:47;;;;;;;;;;;4.70;99.90;;;;;;5008899;28;19940;-65
2023/02/25 07:34:13;;;;;;;;;;;4.80;99.90;;;;;;5008364;28;19945;-64
2023/02/25 07:36:39;;;;;;;;;;;4.80;99.90;;;;;;5009512;28;19928;-66
2023/02/25 07:39:05;;;;;;;;;;;4.80;99.90;;;;;;5010617;28;19909;-65
2023/02/25 07:41:31;;;;;;;;;;;4.80;99.90;;;;;;5002455;28;19956;-63
2023/02/25 07:43:56;;;;;;;;;;;4.90;99.90;;;;;;5009099;28;20326;-63
2023/02/25 07:46:22;;;;;;;;;;;4.90;99.90;;;;;;5009680;28;19916;-63
2023/02/25 07:48:47;;;;;;;;;;;4.90;99.90;;;;;;5006224;28;19924;-65
2023/02/25 07:51:17;;;;;;;;;;;4.90;99.90;;;;;;5007634;28;20302;-64
2023/02/25 07:53:43;;;;;;;;;;;5.00;99.90;;;;;;5008868;28;19917;-61
2023/02/25 07:56:09;;;;;;;;;;;5.00;99.90;;;;;;5009668;28;20279;-64
2023/02/25 07:58:34;;;;;;;;;;;4.90;99.90;;;;;;5009856;28;19918;-65
2023/02/25 08:01:02;;;;;;;;;;;5.00;99.90;;;;;;5006503;28;20387;-64
2023/02/25 08:03:28;;;;;;;;;;;4.90;99.90;;;;;;5007952;28;19913;-61
2023/02/25 08:05:53;;;;;;;;;;;5.00;99.90;;;;;;5006202;28;20007;-62
2023/02/25 08:08:22;;;;;;;;;;;5.00;99.90;;;;;;5007748;28;20039;-62
2023/02/25 08:10:47;;;;;;;;;;;5.10;99.90;;;;;;5005718;28;20645;-62
2023/02/25 08:13:13;;;;;;;;;;;5.10;99.90;;;;;;5007939;28;19925;-63
2023/02/25 08:15:39;;;;;;;;;;;5.10;99.90;;;;;;5004483;28;20006;-61
2023/02/25 08:18:04;;;;;;;;;;;5.10;99.90;;;;;;5005552;28;20560;-62
2023/02/25 08:20:30;;;;;;;;;;;5.10;99.90;;;;;;5006375;28;19995;-62
2023/02/25 08:22:55;;;;;;;;;;;5.10;99.90;;;;;;5008610;28;19909;-62
2023/02/25 08:25:21;;;;;;;;;;;5.10;99.90;;;;;;5009393;28;19909;-61
2023/02/25 08:27:46;;;;;;;;;;;5.20;99.90;;;;;;5008670;28;19985;-62
2023/02/25 08:30:12;;;;;;;;;;;5.20;99.90;;;;;;5010282;28;19913;-61
2023/02/25 08:32:37;;;;;;;;;;;5.30;99.90;;;;;;5009800;28;20353;-62
2023/02/25 08:35:03;;;;;;;;;;;5.30;99.90;;;;;;5007597;28;20628;-61
2023/02/25 08:37:29;;;;;;;;;;;5.40;99.90;;;;;;5000706;28;20326;-61
2023/02/25 08:39:55;;;;;;;;;;;5.40;99.90;;;;;;5005275;28;19972;-61
2023/02/25 08:42:21;;;;;;;;;;;5.40;99.90;;;;;;5003750;28;19956;-62
2023/02/25 08:44:47;;;;;;;;;;;5.50;99.90;;;;;;5003245;28;19918;-61
2023/02/25 08:47:12;;;;;;;;;;;5.50;99.90;;;;;;5002810;28;19909;-61
2023/02/25 08:49:39;;;;;;;;;;;5.50;99.90;;;;;;5007298;28;19920;-62
2023/02/25 08:52:04;;;;;;;;;;;5.50;99.90;;;;;;5003717;28;19916;-61
2023/02/25 08:54:30;;;;;;;;;;;5.50;99.90;;;;;;5005754;28;20279;-63
2023/02/25 08:56:56;;;;;;;;;;;5.50;99.90;;;;;;5004215;28;19972;-63
2023/02/25 08:59:21;;;;;;;;;;;5.50;99.90;;;;;;5008032;28;19976;-63
2023/02/25 09:01:48;;;;;;;;;;;5.50;99.90;;;;;;5005288;28;19920;-63
2023/02/25 09:04:14;;;;;;;;;;;5.40;99.90;;;;;;5005930;28;19931;-63
2023/02/25 09:06:40;;;;;;;;;;;5.50;99.90;;;;;;5009420;28;20410;-63
2023/02/25 09:09:05;;;;;;;;;;;5.60;99.90;;;;;;4999612;28;19937;-63
2023/02/25 09:11:31;;;;;;;;;;;5.50;99.90;;;;;;5005940;28;20012;-63
2023/02/25 09:13:57;;;;;;;;;;;5.50;99.90;;;;;;5001534;28;19913;-58
2023/02/25 09:16:23;;;;;;;;;;;5.50;99.90;;;;;;5005502;28;19926;-63
2023/02/25 09:18:50;;;;;;;;;;;5.40;99.90;;;;;;5001930;28;19921;-63
2023/02/25 09:21:16;;;;;;;;;;;5.30;99.90;;;;;;5002346;28;20260;-63
2023/02/25 09:23:41;;;;;;;;;;;5.30;99.90;;;;;;5006078;28;19921;-58
2023/02/25 09:26:07;;;;;;;;;;;5.20;99.90;;;;;;4999889;28;19914;-63
2023/02/25 09:28:33;;;;;;;;;;;5.20;99.90;;;;;;5005073;28;19913;-63
2023/02/25 09:30:58;;;;;;;;;;;5.20;99.90;;;;;;5008780;28;19914;-63
2023/02/25 09:33:25;;;;;;;;;;;5.10;99.90;;;;;;5007284;28;19909;-63
2023/02/25 09:35:51;;;;;;;;;;;5.00;99.90;;;;;;4988047;28;19909;-63
2023/02/25 09:38:17;;;;;;;;;;;4.90;99.90;;;;;;5005860;28;19917;-63
2023/02/25 09:40:46;;;;;;;;;;;4.90;99.90;;;;;;5005303;28;19910;-63
2023/02/25 09:43:25;;;;;;;;;;;4.90;99.90;;;;;;5006125;28;19910;-64
2023/02/25 09:45:52;;;;;;;;;;;4.90;99.90;;;;;;5004608;28;19910;-62
2023/02/25 09:48:20;;;;;;;;;;;4.90;99.90;;;;;;5001829;28;19920;-63
2023/02/25 09:50:50;;;;;;;;;;;5.00;99.90;;;;;;5006621;28;20068;-63
2023/02/25 09:53:25;;;;;;;;;;;5.00;99.90;;;;;;5005962;28;19916;-63
2023/02/25 09:55:51;;;;;;;;;;;5.00;99.90;;;;;;5002908;28;19917;-63
2023/02/25 09:58:25;;;;;;;;;;;5.00;99.90;;;;;;5006087;28;19992;-64
2023/02/25 10:01:08;;;;;;;;;;;5.00;99.90;;;;;;5003068;28;19910;-64
2023/02/25 10:03:53;;;;;;;;;;;5.00;99.90;;;;;;5000355;28;19921;-63
2023/02/25 10:06:26;;;;;;;;;;;5.10;99.90;;;;;;4999511;28;19917;-63
2023/02/25 10:09:01;;;;;;;;;;;5.10;99.90;;;;;;5004500;28;20020;-62
2023/02/25 10:11:36;;;;;;;;;;;5.20;99.90;;;;;;5009910;28;20016;-62
2023/02/25 10:14:16;;;;;;;;;;;5.30;99.90;;;;;;5010494;28;19910;-63
2023/02/25 10:16:58;;;;;;;;;;;5.50;99.90;;;;;;5008719;28;19917;-64
2023/02/25 10:19:27;;;;;;;;;;;5.60;99.90;;;;;;5008431;28;19915;-63
2023/02/25 10:21:55;;;;;;;;;;;5.60;99.90;;;;;;5006166;28;19919;-64
2023/02/25 10:24:42;;;;;;;;;;;5.70;99.90;;;;;;5007001;28;19922;-63
2023/02/25 10:27:16;;;;;;;;;;;5.80;99.90;;;;;;5004315;28;19936;-63
2023/02/25 10:29:48;;;;;;;;;;;5.70;99.90;;;;;;5006533;28;19933;-63
2023/02/25 10:32:16;;;;;;;;;;;5.70;99.90;;;;;;5009391;28;19910;-63
2023/02/25 10:34:41;;;;;;;;;;;5.80;99.90;;;;;;5007409;28;19965;-64
2023/02/25 10:37:12;;;;;;;;;;;5.80;99.90;;;;;;5005858;28;20014;-62
2023/02/25 10:39:37;;;;;;;;;;;6.00;99.90;;;;;;4991001;28;19914;-63
2023/02/25 10:42:03;;;;;;;;;;;6.10;99.90;;;;;;5007683;28;19918;-63
2023/02/25 10:44:28;;;;;;;;;;;6.10;99.90;;;;;;5006395;28;19914;-64
2023/02/25 10:46:59;;;;;;;;;;;6.10;99.90;;;;;;5000316;28;19932;-62
2023/02/25 10:49:26;;;;;;;;;;;6.10;99.90;;;;;;5004235;28;19925;-64
2023/02/25 10:51:56;;;;;;;;;;;6.20;99.90;;;;;;5010020;28;20368;-63
2023/02/25 10:54:23;;;;;;;;;;;6.20;99.90;;;;;;5008435;28;19909;-63
2023/02/25 10:56:49;;;;;;;;;;;6.30;99.90;;;;;;5007671;28;19928;-63
2023/02/25 10:59:23;;;;;;;;;;;6.50;99.90;;;;;;5005846;28;19918;-63
2023/02/25 11:01:49;;;;;;;;;;;6.60;99.90;;;;;;5003594;28;19944;-64
2023/02/25 11:04:17;;;;;;;;;;;6.50;99.90;;;;;;5007489;28;19948;-63
2023/02/25 11:06:43;;;;;;;;;;;6.40;99.90;;;;;;5008560;28;19910;-63
2023/02/25 11:09:29;;;;;;;;;;;6.30;99.90;;;;;;5009491;28;19915;-63
2023/02/25 11:11:55;;;;;;;;;;;6.10;99.90;;;;;;5009011;28;19927;-63
2023/02/25 11:14:26;;;;;;;;;;;5.80;99.90;;;;;;5006086;28;20004;-63
2023/02/25 11:16:59;;;;;;;;;;;5.00;99.90;;;;;;5005599;28;19910;-60
2023/02/25 11:19:30;;;;;;;;;;;4.50;99.90;;;;;;5002619;28;19922;-62
2023/02/25 11:21:57;;;;;;;;;;;4.00;99.90;;;;;;5009190;28;19916;-61
2023/02/25 11:24:30;;;;;;;;;;;3.60;99.90;;;;;;5010315;28;19922;-62
2023/02/25 11:26:56;;;;;;;;;;;3.50;99.90;;;;;;5007595;28;19933;-62
2023/02/25 11:29:24;;;;;;;;;;;3.50;99.90;;;;;;5007852;28;19921;-63
2023/02/25 11:31:55;;;;;;;;;;;3.50;99.90;;;;;;5010006;28;19914;-62
2023/02/25 11:34:22;;;;;;;;;;;3.60;99.90;;;;;;4997372;28;19922;-63
2023/02/25 11:36:48;;;;;;;;;;;3.60;99.90;;;;;;5004717;28;20055;-62
2023/02/25 11:39:17;;;;;;;;;;;3.70;99.90;;;;;;5003008;28;19995;-63
2023/02/25 11:41:44;;;;;;;;;;;3.80;99.90;;;;;;5004512;28;20367;-62
2023/02/25 11:44:17;;;;;;;;;;;3.80;99.90;;;;;;5007415;28;20287;-61
2023/02/25 11:46:44;;;;;;;;;;;3.90;99.90;;;;;;5004405;28;20380;-62
2023/02/25 11:49:13;;;;;;;;;;;4.00;99.90;;;;;;5011065;28;19909;-63
2023/02/25 11:51:45;;;;;;;;;;;4.10;99.90;;;;;;5007403;28;20072;-63
2023/02/25 11:54:18;;;;;;;;;;;4.20;99.90;;;;;;5007660;28;19909;-62
2023/02/25 11:56:55;;;;;;;;;;;4.40;99.90;;;;;;5003255;28;19916;-62
2023/02/25 11:59:23;;;;;;;;;;;4.80;99.90;;;;;;5006331;28;19917;-62
2023/02/25 12:01:49;;;;;;;;;;;5.10;99.90;;;;;;5009176;28;19917;-66
2023/02/25 12:04:33;;;;;;;;;;;5.20;99.90;;;;;;5009505;28;19913;-66
2023/02/25 12:07:17;;;;;;;;;;;5.40;99.90;;;;;;5006845;28;19916;-64
2023/02/25 12:09:48;;;;;;;;;;;5.50;99.90;;;;;;5002915;28;19961;-65
2023/02/25 12:12:40;;;;;;;;;;;5.90;99.90;;;;;;5006352;28;19909;-66
2023/02/25 12:15:17;;;;;;;;;;;5.90;99.90;;;;;;4985220;28;20326;-67
2023/02/25 12:18:03;;;;;;;;;;;6.00;99.90;;;;;;5009257;28;19913;-67
2023/02/25 12:20:58;;;;;;;;;;;6.10;99.90;;;;;;5003852;28;19909;-64
2023/02/25 12:23:36;;;;;;;;;;;6.20;99.90;;;;;;4955446;28;20311;-63
2023/02/25 12:26:05;;;;;;;;;;;6.40;99.90;;;;;;5002418;28;19910;-66
2023/02/25 12:28:49;;;;;;;;;;;6.70;99.90;;;;;;5006050;28;19930;-64
2023/02/25 12:31:33;;;;;;;;;;;6.80;99.90;;;;;;5009956;28;20013;-63
2023/02/25 12:33:59;;;;;;;;;;;6.90;99.90;;;;;;5007586;28;19912;-63
2023/02/25 12:36:30;;;;;;;;;;;7.00;99.90;;;;;;5008882;28;19999;-64
2023/02/25 12:39:11;;;;;;;;;;;7.20;99.90;;;;;;5001279;28;21657;-64
2023/02/25 12:41:55;;;;;;;;;;;7.30;99.90;;;;;;5006064;28;19913;-65
2023/02/25 12:44:29;;;;;;;;;;;7.00;99.90;;;;;;5006806;28;19909;-65
2023/02/25 12:47:15;;;;;;;;;;;7.10;99.90;;;;;;5010575;28;19910;-65
2023/02/25 12:49:41;;;;;;;;;;;7.30;99.90;;;;;;5003251;28;19936;-65
2023/02/25 12:52:09;;;;;;;;;;;7.50;99.90;;;;;;5007203;28;19909;-66
2023/02/25 12:54:47;;;;;;;;;;;7.40;99.90;;;;;;5009398;28;19917;-65
2023/02/25 12:57:20;;;;;;;;;;;7.30;99.90;;;;;;5010107;28;19985;-66
2023/02/25 12:59:57;;;;;;;;;;;7.40;99.90;;;;;;5008905;28;19917;-65
2023/02/25 13:02:41;;;;;;;;;;;7.30;99.90;;;;;;5007153;28;19959;-66
2023/02/25 13:05:25;;;;;;;;;;;7.70;99.90;;;;;;5007955;28;19909;-64
2023/02/25 13:07:59;;;;;;;;;;;7.80;99.90;;;;;;5005572;28;19996;-65
2023/02/25 13:10:28;;;;;;;;;;;8.10;99.90;;;;;;5007860;28;19964;-65
2023/02/25 13:12:57;;;;;;;;;;;8.20;99.90;;;;;;5008340;28;19976;-65
2023/02/25 13:15:32;;;;;;;;;;;8.30;99.90;;;;;;5006615;28;19921;-62
2023/02/25 13:18:16;;;;;;;;;;;8.40;99.90;;;;;;5003586;28;20374;-62
2023/02/25 13:20:53;;;;;;;;;;;8.50;99.90;;;;;;5009395;28;20350;-62
2023/02/25 13:23:37;;;;;;;;;;;8.00;99.90;;;;;;5006327;28;19910;-62
2023/02/25 13:26:16;;;;;;;;;;;7.60;99.90;;;;;;5005420;28;20329;-62
2023/02/25 13:29:00;;;;;;;;;;;7.10;99.90;;;;;;5007940;28;19909;-62
2023/02/25 13:31:26;;;;;;;;;;;6.90;99.90;;;;;;5006163;28;19945;-62
2023/02/25 13:34:09;;;;;;;;;;;7.00;99.90;;;;;;5008398;28;19948;-62
2023/02/25 13:36:43;;;;;;;;;;;7.30;99.90;;;;;;5004649;28;19932;-62
2023/02/25 13:39:27;;;;;;;;;;;7.30;99.90;;;;;;5011331;28;20348;-61
2023/02/25 13:41:58;;;;;;;;;;;7.40;99.90;;;;;;5009337;28;20280;-61
2023/02/25 13:44:30;;;;;;;;;;;7.10;99.90;;;;;;5011779;28;19971;-61
2023/02/25 13:46:59;;;;;;;;;;;7.00;99.90;;;;;;5014640;28;19937;-61
2023/02/25 13:49:27;;;;;;;;;;;7.20;99.90;;;;;;5013719;28;19920;-61
2023/02/25 13:52:12;;;;;;;;;;;7.40;99.90;;;;;;4996986;28;20377;-62
2023/02/25 13:54:56;;;;;;;;;;;7.60;99.90;;;;;;5012787;28;20200;-62
2023/02/25 13:57:33;;;;;;;;;;;8.00;99.90;;;;;;5011477;28;19924;-62
2023/02/25 14:00:05;;;;;;;;;;;8.20;99.90;;;;;;5012871;28;19909;-62
2023/02/25 14:02:50;;;;;;;;;;;8.10;99.90;;;;;;5008873;28;20363;-62
2023/02/25 14:05:18;;;;;;;;;;;8.30;99.90;;;;;;5013318;28;19928;-59
2023/02/25 14:07:58;;;;;;;;;;;8.50;99.90;;;;;;5008877;28;19920;-62
2023/02/25 14:10:41;;;;;;;;;;;8.60;99.90;;;;;;5009395;28;19913;-61
2023/02/25 14:13:10;;;;;;;;;;;8.70;99.90;;;;;;5009638;28;20449;-62
2023/02/25 14:15:58;;;;;;;;;;;8.60;99.90;;;;;;5027975;23;20483;-62
2023/02/25 14:18:31;;;;;;;;;;;8.20;99.90;;;;;;5016135;28;19972;-63
2023/02/25 14:21:03;;;;;;;;;;;7.90;99.90;;;;;;5010227;28;20040;-63
2023/02/25 14:23:35;;;;;;;;;;;7.60;99.90;;;;;;5015516;28;19910;-62
2023/02/25 14:26:04;;;;;;;;;;;7.50;99.90;;;;;;5007470;28;20061;-61
2023/02/25 14:28:32;;;;;;;;;;;7.60;99.90;;;;;;5008973;28;19909;-62
2023/02/25 14:31:08;;;;;;;;;;;7.60;99.90;;;;;;5007565;28;20386;-62
2023/02/25 14:33:37;;;;;;;;;;;7.70;99.90;;;;;;4993061;28;19914;-62
2023/02/25 14:36:08;;;;;;;;;;;7.80;99.90;;;;;;5000263;28;20355;-62
2023/02/25 14:38:46;;;;;;;;;;;7.70;99.90;;;;;;5003860;28;20311;-61
2023/02/25 14:41:32;;;;;;;;;;;7.70;99.90;;;;;;5005913;28;19909;-60
2023/02/25 14:44:05;;;;;;;;;;;7.70;99.90;;;;;;4992849;28;19909;-60